Terminal Aerodrome Forecast
Issued by NWS Denver/Boulder, CO

Home | Current Version | Previous Version | Text Only | Print | Product List | Glossary On
Versions: 1 2 3 4 5 6 7 8 9 10 11 12 13 14 15 16 17 18 19 20 21 22 23 24 25 26 27 28 29 30 31 32 33 34 35 36 37 38 39 40 41
000
FTUS45 KBOU 231659 AAC
TAFDEN
TAF AMD
KDEN 231659Z 2317/2418 12014G24KT P6SM FEW080 FEW120 SCT200
     FM231900 12017G27KT P6SM VCTS SCT060CB BKN120
      TEMPO 2320/2323 VRB18G28KT -TSRA BKN060CB
     FM232300 04012KT P6SM SCT060 BKN120
     FM240200 06007KT P6SM SCT120
     FM240600 16006KT P6SM SCT220
     FM241200 16006KT P6SM SCT010
     FM241500 11010KT P6SM SCT060=

USA.gov is the U.S. government's official web portal to all federal, state and local government web resources and services.